JLY263 LGSK-LQSA
Flight info
| Callsign | JLY263 |
|---|---|
| Flight time | 1h 12m |
| Altitude | 36000 |
| Route | TSL UN130 TALAS DCT LONTA DCT KEB |
| Aircraft | B738/M-SDE2E3FGHIRWXY/LB1 |
Departure
| Time | 2026-04-26 23:46 |
|---|---|
| Airport | Skiathos Island National Airport (LGSK) |
Arrival
| Time | 2026-04-27 00:59 |
|---|---|
| Airport | Sarajevo International Airport (LQSA) |
| Time | Latitude | Longitude | Altitude | Speed | Heading |
|---|---|---|---|---|---|
| 2026-04-26 23:04 | 39.17949 | 23.50259 | 38 ft | 0 kts | 289° |
| 2026-04-26 23:38 | 39.17947 | 23.50266 | 41 ft | 4 kts | 288° |
| 2026-04-26 23:38 | 39.17940 | 23.50299 | 38 ft | 4 kts | 276° |
| 2026-04-26 23:38 | 39.17941 | 23.50333 | 38 ft | 4 kts | 250° |
| 2026-04-26 23:38 | 39.17953 | 23.50355 | 37 ft | 2 kts | 199° |
| 2026-04-26 23:42 | 39.17943 | 23.50351 | 39 ft | 3 kts | 199° |
| 2026-04-26 23:42 | 39.17909 | 23.50335 | 39 ft | 7 kts | 200° |
| 2026-04-26 23:43 | 39.17851 | 23.50309 | 38 ft | 11 kts | 199° |
| 2026-04-26 23:43 | 39.17796 | 23.50283 | 38 ft | 7 kts | 199° |
| 2026-04-26 23:43 | 39.17737 | 23.50261 | 38 ft | 8 kts | 185° |
| 2026-04-26 23:43 | 39.17679 | 23.50245 | 38 ft | 10 kts | 199° |
| 2026-04-26 23:44 | 39.17612 | 23.50218 | 36 ft | 10 kts | 187° |
| 2026-04-26 23:44 | 39.17555 | 23.50262 | 38 ft | 10 kts | 136° |
| 2026-04-26 23:44 | 39.17483 | 23.50266 | 36 ft | 13 kts | 200° |
| 2026-04-26 23:44 | 39.17380 | 23.50220 | 34 ft | 19 kts | 199° |
| 2026-04-26 23:45 | 39.17231 | 23.50154 | 23 ft | 25 kts | 199° |
| 2026-04-26 23:45 | 39.17085 | 23.50092 | 17 ft | 19 kts | 189° |
| 2026-04-26 23:45 | 39.17027 | 23.50057 | 10 ft | 9 kts | 330° |
| 2026-04-26 23:45 | 39.17081 | 23.50088 | 17 ft | 0 kts | 19° |
| 2026-04-26 23:46 | 39.17343 | 23.50204 | 31 ft | 84 kts | 19° |
| 2026-04-26 23:46 | 39.18155 | 23.50565 | 61 ft | 159 kts | 19° |
| 2026-04-26 23:46 | 39.19246 | 23.51056 | 787 ft | 169 kts | 19° |
| 2026-04-26 23:47 | 39.20350 | 23.51548 | 1832 ft | 166 kts | 18° |
| 2026-04-26 23:47 | 39.21449 | 23.52109 | 2550 ft | 179 kts | 34° |
| 2026-04-26 23:47 | 39.22121 | 23.53565 | 2923 ft | 209 kts | 82° |
| 2026-04-26 23:47 | 39.21734 | 23.55395 | 3519 ft | 223 kts | 122° |
| 2026-04-26 23:48 | 39.20771 | 23.56985 | 4248 ft | 227 kts | 124° |
| 2026-04-26 23:48 | 39.19807 | 23.58616 | 5044 ft | 230 kts | 123° |
| 2026-04-26 23:48 | 39.18849 | 23.60270 | 5936 ft | 231 kts | 123° |
| 2026-04-26 23:48 | 39.17903 | 23.61936 | 6797 ft | 232 kts | 119° |
| 2026-04-26 23:49 | 39.17319 | 23.63949 | 7157 ft | 254 kts | 94° |
| 2026-04-26 23:49 | 39.17392 | 23.66295 | 7658 ft | 269 kts | 75° |
| 2026-04-26 23:49 | 39.18104 | 23.68528 | 8465 ft | 272 kts | 55° |
| 2026-04-26 23:49 | 39.19420 | 23.70272 | 9363 ft | 274 kts | 33° |
| 2026-04-26 23:50 | 39.21182 | 23.71199 | 10216 ft | 278 kts | 9° |
| 2026-04-26 23:50 | 39.23171 | 23.71191 | 10616 ft | 301 kts | 348° |
| 2026-04-26 23:50 | 39.25116 | 23.69943 | 10808 ft | 330 kts | 320° |
| 2026-04-26 23:50 | 39.26509 | 23.67476 | 11213 ft | 350 kts | 298° |
| 2026-04-26 23:51 | 39.27634 | 23.64656 | 11910 ft | 356 kts | 299° |
| 2026-04-26 23:51 | 39.28769 | 23.61812 | 12738 ft | 358 kts | 298° |
| 2026-04-26 23:51 | 39.29911 | 23.58934 | 13555 ft | 361 kts | 298° |
| 2026-04-26 23:51 | 39.31243 | 23.56180 | 14252 ft | 364 kts | 314° |
| 2026-04-26 23:52 | 39.33220 | 23.54152 | 15008 ft | 364 kts | 332° |
| 2026-04-26 23:52 | 39.35542 | 23.52946 | 16082 ft | 354 kts | 341° |
| 2026-04-26 23:52 | 39.37838 | 23.51941 | 17336 ft | 342 kts | 340° |
| 2026-04-26 23:52 | 39.40045 | 23.50949 | 18539 ft | 330 kts | 339° |
| 2026-04-26 23:53 | 39.42169 | 23.49975 | 19628 ft | 318 kts | 339° |
| 2026-04-26 23:53 | 39.44256 | 23.48983 | 20223 ft | 326 kts | 338° |
| 2026-04-26 23:53 | 39.46450 | 23.47919 | 20342 ft | 346 kts | 338° |
| 2026-04-26 23:53 | 39.48758 | 23.46793 | 20478 ft | 364 kts | 338° |
| 2026-04-26 23:54 | 39.51147 | 23.45627 | 20599 ft | 380 kts | 338° |
| 2026-04-26 23:54 | 39.53656 | 23.44405 | 20911 ft | 390 kts | 338° |
| 2026-04-26 23:54 | 39.56209 | 23.43164 | 21458 ft | 393 kts | 338° |
| 2026-04-26 23:54 | 39.58780 | 23.41915 | 22041 ft | 395 kts | 338° |
| 2026-04-26 23:55 | 39.61375 | 23.40654 | 22531 ft | 400 kts | 338° |
| 2026-04-26 23:55 | 39.63988 | 23.39383 | 23058 ft | 403 kts | 338° |
| 2026-04-26 23:55 | 39.66620 | 23.38102 | 23594 ft | 405 kts | 338° |
| 2026-04-26 23:55 | 39.69269 | 23.36811 | 24038 ft | 408 kts | 338° |
| 2026-04-26 23:56 | 39.71934 | 23.35512 | 24470 ft | 411 kts | 338° |
| 2026-04-26 23:56 | 39.74618 | 23.34201 | 24879 ft | 414 kts | 338° |
| 2026-04-26 23:56 | 39.77323 | 23.32880 | 25275 ft | 416 kts | 338° |
| 2026-04-26 23:56 | 39.80043 | 23.31550 | 25682 ft | 419 kts | 338° |
| 2026-04-26 23:57 | 39.82787 | 23.30208 | 26071 ft | 422 kts | 338° |
| 2026-04-26 23:57 | 39.85542 | 23.28858 | 26439 ft | 425 kts | 338° |
| 2026-04-26 23:57 | 39.88321 | 23.27496 | 26817 ft | 428 kts | 337° |
| 2026-04-26 23:57 | 39.91112 | 23.26126 | 27187 ft | 430 kts | 337° |
| 2026-04-26 23:58 | 39.93918 | 23.24749 | 27545 ft | 433 kts | 337° |
| 2026-04-26 23:58 | 39.96746 | 23.23359 | 27899 ft | 435 kts | 337° |
| 2026-04-26 23:58 | 39.99585 | 23.21962 | 28246 ft | 438 kts | 337° |
| 2026-04-26 23:58 | 40.02447 | 23.20553 | 28581 ft | 440 kts | 337° |
| 2026-04-26 23:59 | 40.05318 | 23.19138 | 28897 ft | 443 kts | 337° |
| 2026-04-26 23:59 | 40.08212 | 23.17711 | 29211 ft | 445 kts | 337° |
| 2026-04-26 23:59 | 40.11117 | 23.16277 | 29535 ft | 447 kts | 337° |
| 2026-04-26 23:59 | 40.14029 | 23.14838 | 29946 ft | 447 kts | 337° |
| 2026-04-27 00:00 | 40.16932 | 23.13403 | 30410 ft | 445 kts | 337° |
| 2026-04-27 00:00 | 40.19823 | 23.11972 | 30831 ft | 443 kts | 337° |
| 2026-04-27 00:00 | 40.22699 | 23.10547 | 31208 ft | 442 kts | 337° |
| 2026-04-27 00:00 | 40.25581 | 23.09118 | 31498 ft | 444 kts | 337° |
| 2026-04-27 00:01 | 40.28470 | 23.07683 | 31784 ft | 445 kts | 337° |
| 2026-04-27 00:01 | 40.31361 | 23.06246 | 32166 ft | 443 kts | 337° |
| 2026-04-27 00:01 | 40.34239 | 23.04815 | 32579 ft | 442 kts | 337° |
| 2026-04-27 00:01 | 40.37072 | 23.03405 | 32938 ft | 441 kts | 337° |
| 2026-04-27 00:02 | 40.39940 | 23.01976 | 33267 ft | 441 kts | 337° |
| 2026-04-27 00:02 | 40.42765 | 23.00439 | 33592 ft | 439 kts | 330° |
| 2026-04-27 00:02 | 40.45341 | 22.98319 | 33949 ft | 435 kts | 321° |
| 2026-04-27 00:02 | 40.47652 | 22.95704 | 34285 ft | 432 kts | 313° |
| 2026-04-27 00:03 | 40.49592 | 22.92704 | 34570 ft | 430 kts | 306° |
| 2026-04-27 00:03 | 40.51404 | 22.89573 | 34855 ft | 430 kts | 306° |
| 2026-04-27 00:03 | 40.53194 | 22.86435 | 35137 ft | 429 kts | 306° |
| 2026-04-27 00:03 | 40.54985 | 22.83298 | 35435 ft | 428 kts | 306° |
| 2026-04-27 00:04 | 40.56753 | 22.80222 | 35713 ft | 427 kts | 306° |
| 2026-04-27 00:04 | 40.58550 | 22.77114 | 35991 ft | 426 kts | 306° |
| 2026-04-27 00:04 | 40.62171 | 22.70875 | 36084 ft | 432 kts | 306° |
| 2026-04-27 00:05 | 40.65811 | 22.64607 | 36079 ft | 428 kts | 306° |
| 2026-04-27 00:05 | 40.69398 | 22.58417 | 36089 ft | 424 kts | 306° |
| 2026-04-27 00:06 | 40.72967 | 22.52243 | 36098 ft | 423 kts | 306° |
| 2026-04-27 00:06 | 40.76525 | 22.46076 | 36097 ft | 423 kts | 306° |
| 2026-04-27 00:07 | 40.80088 | 22.39901 | 36115 ft | 423 kts | 306° |
| 2026-04-27 00:07 | 40.83658 | 22.33716 | 36116 ft | 424 kts | 306° |
| 2026-04-27 00:08 | 40.87232 | 22.27508 | 36125 ft | 425 kts | 306° |
| 2026-04-27 00:08 | 40.90807 | 22.21285 | 36129 ft | 426 kts | 306° |
| 2026-04-27 00:09 | 40.94392 | 22.15031 | 36146 ft | 427 kts | 306° |
| 2026-04-27 00:09 | 40.97981 | 22.08757 | 36138 ft | 428 kts | 306° |
| 2026-04-27 00:10 | 41.01541 | 22.02521 | 36161 ft | 428 kts | 306° |
| 2026-04-27 00:10 | 41.05135 | 21.96240 | 36163 ft | 428 kts | 308° |
| 2026-04-27 00:11 | 41.07250 | 21.93400 | 36164 ft | 430 kts | 319° |
| 2026-04-27 00:11 | 41.09694 | 21.91093 | 36187 ft | 432 kts | 327° |
| 2026-04-27 00:11 | 41.15232 | 21.87952 | 36191 ft | 436 kts | 338° |
| 2026-04-27 00:12 | 41.20935 | 21.85342 | 36178 ft | 436 kts | 338° |
| 2026-04-27 00:12 | 41.26670 | 21.82693 | 36182 ft | 436 kts | 338° |
| 2026-04-27 00:13 | 41.32383 | 21.80001 | 36193 ft | 435 kts | 338° |
| 2026-04-27 00:13 | 41.38083 | 21.77287 | 36193 ft | 435 kts | 338° |
| 2026-04-27 00:14 | 41.43782 | 21.74565 | 36186 ft | 434 kts | 338° |
| 2026-04-27 00:14 | 41.49460 | 21.71850 | 36194 ft | 434 kts | 338° |
| 2026-04-27 00:15 | 41.54176 | 21.69591 | 36193 ft | 433 kts | 338° |
| 2026-04-27 00:15 | 41.59843 | 21.66872 | 36191 ft | 433 kts | 338° |
| 2026-04-27 00:16 | 41.65512 | 21.64148 | 36195 ft | 432 kts | 338° |
| 2026-04-27 00:16 | 41.71170 | 21.61423 | 36204 ft | 432 kts | 338° |
| 2026-04-27 00:17 | 41.76827 | 21.58694 | 36200 ft | 432 kts | 338° |
| 2026-04-27 00:17 | 41.82475 | 21.55964 | 36204 ft | 432 kts | 338° |
| 2026-04-27 00:18 | 41.88139 | 21.53221 | 36199 ft | 433 kts | 338° |
| 2026-04-27 00:18 | 41.93814 | 21.50467 | 36203 ft | 434 kts | 338° |
| 2026-04-27 00:19 | 41.99503 | 21.47702 | 36209 ft | 436 kts | 338° |
| 2026-04-27 00:19 | 42.05209 | 21.44923 | 36204 ft | 437 kts | 338° |
| 2026-04-27 00:20 | 42.10930 | 21.42132 | 36204 ft | 437 kts | 338° |
| 2026-04-27 00:20 | 42.16251 | 21.38327 | 36211 ft | 433 kts | 321° |
| 2026-04-27 00:21 | 42.20500 | 21.32657 | 36224 ft | 430 kts | 309° |
| 2026-04-27 00:21 | 42.24348 | 21.26461 | 36214 ft | 430 kts | 308° |
| 2026-04-27 00:22 | 42.28163 | 21.20306 | 36212 ft | 430 kts | 309° |
| 2026-04-27 00:22 | 42.32017 | 21.14135 | 36220 ft | 429 kts | 309° |
| 2026-04-27 00:23 | 42.35869 | 21.07983 | 36230 ft | 428 kts | 309° |
| 2026-04-27 00:23 | 42.39713 | 21.01840 | 36231 ft | 428 kts | 309° |
| 2026-04-27 00:24 | 42.43549 | 20.95696 | 36238 ft | 427 kts | 309° |
| 2026-04-27 00:24 | 42.47378 | 20.89551 | 36238 ft | 427 kts | 309° |
| 2026-04-27 00:25 | 42.51202 | 20.83400 | 36237 ft | 426 kts | 309° |
| 2026-04-27 00:25 | 42.55021 | 20.77245 | 36233 ft | 427 kts | 309° |
| 2026-04-27 00:26 | 42.58834 | 20.71085 | 36229 ft | 426 kts | 309° |
| 2026-04-27 00:26 | 42.62645 | 20.64916 | 36228 ft | 426 kts | 309° |
| 2026-04-27 00:27 | 42.66451 | 20.58742 | 36230 ft | 427 kts | 308° |
| 2026-04-27 00:27 | 42.70263 | 20.52547 | 36229 ft | 427 kts | 308° |
| 2026-04-27 00:28 | 42.74066 | 20.46352 | 36237 ft | 427 kts | 308° |
| 2026-04-27 00:28 | 42.77869 | 20.40145 | 36246 ft | 427 kts | 308° |
| 2026-04-27 00:29 | 42.81665 | 20.33936 | 36243 ft | 427 kts | 308° |
| 2026-04-27 00:29 | 42.85460 | 20.27715 | 36255 ft | 427 kts | 308° |
| 2026-04-27 00:30 | 42.89252 | 20.21485 | 36245 ft | 427 kts | 308° |
| 2026-04-27 00:30 | 42.93043 | 20.15244 | 36259 ft | 427 kts | 308° |
| 2026-04-27 00:31 | 42.96805 | 20.09039 | 36260 ft | 427 kts | 308° |
| 2026-04-27 00:31 | 43.00587 | 20.02787 | 36257 ft | 427 kts | 308° |
| 2026-04-27 00:32 | 43.04378 | 19.96505 | 35793 ft | 433 kts | 308° |
| 2026-04-27 00:32 | 43.06290 | 19.93332 | 35223 ft | 432 kts | 308° |
| 2026-04-27 00:32 | 43.08198 | 19.90163 | 34592 ft | 432 kts | 308° |
| 2026-04-27 00:33 | 43.10108 | 19.86987 | 33904 ft | 433 kts | 308° |
| 2026-04-27 00:33 | 43.12017 | 19.83809 | 33331 ft | 430 kts | 308° |
| 2026-04-27 00:33 | 43.13908 | 19.80657 | 32842 ft | 426 kts | 308° |
| 2026-04-27 00:33 | 43.15773 | 19.77547 | 32367 ft | 421 kts | 308° |
| 2026-04-27 00:34 | 43.17626 | 19.74453 | 31900 ft | 417 kts | 308° |
| 2026-04-27 00:34 | 43.19456 | 19.71394 | 31450 ft | 413 kts | 308° |
| 2026-04-27 00:34 | 43.21269 | 19.68358 | 30991 ft | 410 kts | 308° |
| 2026-04-27 00:34 | 43.23067 | 19.65347 | 30545 ft | 407 kts | 309° |
| 2026-04-27 00:35 | 43.24847 | 19.62361 | 30075 ft | 403 kts | 309° |
| 2026-04-27 00:35 | 43.26618 | 19.59388 | 29574 ft | 400 kts | 309° |
| 2026-04-27 00:35 | 43.28364 | 19.56453 | 29117 ft | 395 kts | 309° |
| 2026-04-27 00:35 | 43.30092 | 19.53546 | 28665 ft | 391 kts | 309° |
| 2026-04-27 00:36 | 43.31804 | 19.50663 | 28207 ft | 388 kts | 309° |
| 2026-04-27 00:36 | 43.33498 | 19.47808 | 27748 ft | 384 kts | 309° |
| 2026-04-27 00:36 | 43.35181 | 19.44969 | 27314 ft | 381 kts | 309° |
| 2026-04-27 00:36 | 43.36825 | 19.42192 | 26867 ft | 378 kts | 309° |
| 2026-04-27 00:37 | 43.38501 | 19.39359 | 26428 ft | 376 kts | 309° |
| 2026-04-27 00:37 | 43.40121 | 19.36618 | 26005 ft | 373 kts | 309° |
| 2026-04-27 00:37 | 43.41753 | 19.33854 | 25587 ft | 371 kts | 309° |
| 2026-04-27 00:37 | 43.43376 | 19.31102 | 25160 ft | 369 kts | 309° |
| 2026-04-27 00:38 | 43.44987 | 19.28368 | 24737 ft | 368 kts | 309° |
| 2026-04-27 00:38 | 43.46595 | 19.25636 | 24313 ft | 366 kts | 309° |
| 2026-04-27 00:38 | 43.48198 | 19.22910 | 23869 ft | 366 kts | 309° |
| 2026-04-27 00:38 | 43.49798 | 19.20189 | 23388 ft | 365 kts | 309° |
| 2026-04-27 00:39 | 43.51388 | 19.17482 | 22921 ft | 363 kts | 309° |
| 2026-04-27 00:39 | 43.52972 | 19.14782 | 22499 ft | 361 kts | 309° |
| 2026-04-27 00:39 | 43.54545 | 19.12098 | 21999 ft | 360 kts | 309° |
| 2026-04-27 00:39 | 43.56115 | 19.09415 | 21567 ft | 358 kts | 309° |
| 2026-04-27 00:40 | 43.57677 | 19.06744 | 21136 ft | 356 kts | 309° |
| 2026-04-27 00:40 | 43.59224 | 19.04096 | 20723 ft | 354 kts | 309° |
| 2026-04-27 00:40 | 43.60765 | 19.01456 | 20313 ft | 352 kts | 309° |
| 2026-04-27 00:40 | 43.62295 | 18.98832 | 19905 ft | 350 kts | 309° |
| 2026-04-27 00:41 | 43.63820 | 18.96214 | 19508 ft | 348 kts | 309° |
| 2026-04-27 00:41 | 43.65332 | 18.93615 | 19104 ft | 347 kts | 309° |
| 2026-04-27 00:41 | 43.66841 | 18.91020 | 18703 ft | 345 kts | 309° |
| 2026-04-27 00:41 | 43.68341 | 18.88438 | 18262 ft | 344 kts | 309° |
| 2026-04-27 00:42 | 43.69831 | 18.85872 | 17818 ft | 342 kts | 309° |
| 2026-04-27 00:42 | 43.71318 | 18.83309 | 17396 ft | 340 kts | 309° |
| 2026-04-27 00:42 | 43.72788 | 18.80771 | 16992 ft | 337 kts | 309° |
| 2026-04-27 00:42 | 43.74251 | 18.78244 | 16595 ft | 335 kts | 309° |
| 2026-04-27 00:43 | 43.75702 | 18.75736 | 16201 ft | 333 kts | 309° |
| 2026-04-27 00:43 | 43.77147 | 18.73235 | 15794 ft | 331 kts | 309° |
| 2026-04-27 00:43 | 43.78581 | 18.70753 | 15398 ft | 329 kts | 309° |
| 2026-04-27 00:43 | 43.80004 | 18.68286 | 15008 ft | 328 kts | 309° |
| 2026-04-27 00:44 | 43.81425 | 18.65821 | 14616 ft | 326 kts | 309° |
| 2026-04-27 00:44 | 43.82837 | 18.63368 | 14217 ft | 325 kts | 309° |
| 2026-04-27 00:44 | 43.84232 | 18.60945 | 14032 ft | 317 kts | 309° |
| 2026-04-27 00:44 | 43.85586 | 18.58589 | 13867 ft | 308 kts | 309° |
| 2026-04-27 00:45 | 43.86901 | 18.56300 | 13721 ft | 299 kts | 309° |
| 2026-04-27 00:45 | 43.88177 | 18.54076 | 13580 ft | 291 kts | 309° |
| 2026-04-27 00:45 | 43.89418 | 18.51915 | 13456 ft | 282 kts | 309° |
| 2026-04-27 00:45 | 43.90619 | 18.49819 | 13344 ft | 273 kts | 309° |
| 2026-04-27 00:46 | 43.91784 | 18.47787 | 13229 ft | 265 kts | 309° |
| 2026-04-27 00:46 | 43.92915 | 18.45810 | 13121 ft | 257 kts | 309° |
| 2026-04-27 00:46 | 43.94040 | 18.43909 | 12915 ft | 254 kts | 311° |
| 2026-04-27 00:46 | 43.95202 | 18.42088 | 12686 ft | 251 kts | 312° |
| 2026-04-27 00:47 | 43.96369 | 18.40283 | 12335 ft | 251 kts | 313° |
| 2026-04-27 00:47 | 43.97540 | 18.38470 | 11834 ft | 254 kts | 313° |
| 2026-04-27 00:47 | 43.98713 | 18.36646 | 11439 ft | 252 kts | 313° |
| 2026-04-27 00:47 | 43.99875 | 18.34836 | 11074 ft | 249 kts | 313° |
| 2026-04-27 00:48 | 44.01022 | 18.33041 | 10698 ft | 248 kts | 313° |
| 2026-04-27 00:48 | 44.02161 | 18.31258 | 10324 ft | 245 kts | 313° |
| 2026-04-27 00:48 | 44.03271 | 18.29518 | 9936 ft | 243 kts | 313° |
| 2026-04-27 00:48 | 44.04393 | 18.27758 | 9509 ft | 243 kts | 313° |
| 2026-04-27 00:49 | 44.05514 | 18.25998 | 9071 ft | 243 kts | 313° |
| 2026-04-27 00:49 | 44.06636 | 18.24235 | 8652 ft | 243 kts | 313° |
| 2026-04-27 00:49 | 44.07787 | 18.22513 | 8224 ft | 243 kts | 314° |
| 2026-04-27 00:49 | 44.08949 | 18.20816 | 7811 ft | 243 kts | 314° |
| 2026-04-27 00:50 | 44.10113 | 18.19119 | 7420 ft | 241 kts | 315° |
| 2026-04-27 00:50 | 44.11145 | 18.14830 | 6718 ft | 249 kts | 264° |
| 2026-04-27 00:50 | 44.10882 | 18.12441 | 6368 ft | 251 kts | 252° |
| 2026-04-27 00:51 | 44.09960 | 18.10421 | 6080 ft | 249 kts | 219° |
| 2026-04-27 00:51 | 44.08597 | 18.08995 | 6046 ft | 244 kts | 212° |
| 2026-04-27 00:51 | 44.07116 | 18.07858 | 6026 ft | 242 kts | 204° |
| 2026-04-27 00:51 | 44.05571 | 18.06945 | 6017 ft | 241 kts | 200° |
| 2026-04-27 00:52 | 44.04008 | 18.06122 | 6012 ft | 239 kts | 199° |
| 2026-04-27 00:52 | 44.02435 | 18.05390 | 5999 ft | 239 kts | 191° |
| 2026-04-27 00:52 | 44.00770 | 18.05320 | 5888 ft | 241 kts | 176° |
| 2026-04-27 00:52 | 43.99082 | 18.05399 | 5769 ft | 243 kts | 178° |
| 2026-04-27 00:53 | 43.97403 | 18.05436 | 5674 ft | 236 kts | 178° |
| 2026-04-27 00:53 | 43.95812 | 18.05455 | 5580 ft | 223 kts | 179° |
| 2026-04-27 00:53 | 43.94321 | 18.05473 | 5454 ft | 211 kts | 175° |
| 2026-04-27 00:53 | 43.92986 | 18.06058 | 5337 ft | 202 kts | 140° |
| 2026-04-27 00:54 | 43.92161 | 18.07593 | 5210 ft | 199 kts | 117° |
| 2026-04-27 00:54 | 43.91448 | 18.09253 | 5011 ft | 200 kts | 119° |
| 2026-04-27 00:54 | 43.90780 | 18.10904 | 4819 ft | 192 kts | 117° |
| 2026-04-27 00:54 | 43.90168 | 18.12508 | 4625 ft | 183 kts | 117° |
| 2026-04-27 00:55 | 43.89601 | 18.14016 | 4442 ft | 168 kts | 117° |
| 2026-04-27 00:55 | 43.89075 | 18.15427 | 4292 ft | 165 kts | 117° |
| 2026-04-27 00:55 | 43.88545 | 18.16842 | 4180 ft | 166 kts | 117° |
| 2026-04-27 00:55 | 43.88010 | 18.18269 | 3949 ft | 167 kts | 118° |
| 2026-04-27 00:56 | 43.87493 | 18.19653 | 3723 ft | 158 kts | 117° |
| 2026-04-27 00:56 | 43.87001 | 18.20967 | 3532 ft | 151 kts | 117° |
| 2026-04-27 00:56 | 43.86521 | 18.22253 | 3326 ft | 150 kts | 117° |
| 2026-04-27 00:56 | 43.86042 | 18.23534 | 3143 ft | 150 kts | 116° |
| 2026-04-27 00:57 | 43.85562 | 18.24822 | 2925 ft | 150 kts | 116° |
| 2026-04-27 00:57 | 43.85081 | 18.26109 | 2703 ft | 150 kts | 117° |
| 2026-04-27 00:57 | 43.84604 | 18.27388 | 2484 ft | 149 kts | 117° |
| 2026-04-27 00:57 | 43.84128 | 18.28660 | 2256 ft | 149 kts | 117° |
| 2026-04-27 00:58 | 43.83651 | 18.29954 | 1997 ft | 151 kts | 117° |
| 2026-04-27 00:58 | 43.83171 | 18.31248 | 1775 ft | 151 kts | 118° |
| 2026-04-27 00:58 | 43.82698 | 18.32507 | 1677 ft | 139 kts | 117° |
| 2026-04-27 00:58 | 43.82352 | 18.33434 | 1691 ft | 77 kts | 117° |
| 2026-04-27 00:59 | 43.82167 | 18.33926 | 1702 ft | 38 kts | 117° |
| 2026-04-27 00:59 | 43.82060 | 18.34210 | 1706 ft | 28 kts | 117° |
| 2026-04-27 00:59 | 43.81987 | 18.34403 | 1711 ft | 21 kts | 118° |
| 2026-04-27 00:59 | 43.81945 | 18.34567 | 1715 ft | 15 kts | 71° |
| 2026-04-27 01:00 | 43.82023 | 18.34624 | 1713 ft | 10 kts | 0° |
| 2026-04-27 01:00 | 43.82092 | 18.34589 | 1712 ft | 13 kts | 319° |
| 2026-04-27 01:00 | 43.82143 | 18.34467 | 1709 ft | 18 kts | 297° |
| 2026-04-27 01:00 | 43.82208 | 18.34295 | 1706 ft | 22 kts | 297° |
| 2026-04-27 01:01 | 43.82273 | 18.34119 | 1702 ft | 20 kts | 297° |
| 2026-04-27 01:01 | 43.82314 | 18.34010 | 1698 ft | 9 kts | 298° |
| 2026-04-27 01:01 | 43.82351 | 18.33911 | 1690 ft | 14 kts | 296° |
| 2026-04-27 01:01 | 43.82379 | 18.33835 | 1689 ft | 9 kts | 297° |
| 2026-04-27 01:02 | 43.82411 | 18.33750 | 1686 ft | 11 kts | 297° |
| 2026-04-27 01:02 | 43.82445 | 18.33659 | 1684 ft | 10 kts | 297° |
| 2026-04-27 01:02 | 43.82466 | 18.33605 | 1686 ft | 7 kts | 307° |
| 2026-04-27 01:02 | 43.82512 | 18.33608 | 1685 ft | 5 kts | 28° |
| 2026-04-27 01:03 | 43.82530 | 18.33621 | 1690 ft | 3 kts | 27° |
| 2026-04-27 01:03 | 43.82538 | 18.33627 | 1687 ft | 0 kts | 28° |